Time;durP1;ratioP1;P1;durP2;ratioP2;P2;SDS_P1;SDS_P2;PMS_P1;PMS_P2;Temp;Humidity;BMP_temperature;BMP_pressure;BME280_temperature;BME280_humidity;BME280_pressure;Samples;Min_cycle;Max_cycle;Signal;HPM_P1;HPM_P2
2023/06/29 00:01:37;;;;;;;6.32;3.20;;;;;;;;;;10022412;28;20058;-86
2023/06/29 00:06:36;;;;;;;4.95;3.05;;;;;;;;;;10017677;28;20066;-87
2023/06/29 00:11:31;;;;;;;5.85;4.07;;;;;;;;;;10021347;28;20477;-86
2023/06/29 00:16:25;;;;;;;5.18;3.50;;;;;;;;;;10021336;28;20153;-86
2023/06/29 00:21:19;;;;;;;3.95;3.55;;;;;;;;;;10013185;28;20049;-86
2023/06/29 00:26:16;;;;;;;4.97;4.07;;;;;;;;;;10021583;28;20120;-86
2023/06/29 00:31:10;;;;;;;5.60;3.80;;;;;;;;;;10019206;28;20129;-86
2023/06/29 00:36:06;;;;;;;6.68;3.88;;;;;;;;;;10018488;28;20065;-86
2023/06/29 00:41:01;;;;;;;7.78;3.53;;;;;;;;;;10019953;28;20513;-86
2023/06/29 00:45:55;;;;;;;7.10;3.85;;;;;;;;;;10003457;28;20058;-86
2023/06/29 00:50:49;;;;;;;5.82;3.30;;;;;;;;;;10020583;28;20452;-86
2023/06/29 00:55:44;;;;;;;3.75;3.30;;;;;;;;;;10016157;28;20556;-86
2023/06/29 01:00:38;;;;;;;3.58;3.05;;;;;;;;;;10005494;28;20058;-86
2023/06/29 01:05:33;;;;;;;4.72;3.17;;;;;;;;;;10006291;28;20046;-86
2023/06/29 01:10:30;;;;;;;5.70;3.70;;;;;;;;;;10023076;28;20424;-86
2023/06/29 01:15:23;;;;;;;5.72;4.35;;;;;;;;;;10005465;28;20053;-86
2023/06/29 01:20:16;;;;;;;4.10;3.70;;;;;;;;;;10023391;28;20138;-86
2023/06/29 01:25:10;;;;;;;4.45;3.88;;;;;;;;;;10025894;28;20042;-85
2023/06/29 01:30:09;;;;;;;3.80;3.33;;;;;;;;;;10005061;28;20050;-85
2023/06/29 01:35:04;;;;;;;3.75;3.38;;;;;;;;;;10026455;28;20141;-86
2023/06/29 01:40:04;;;;;;;5.22;3.40;;;;;;;;;;10027612;28;20065;-86
2023/06/29 01:45:00;;;;;;;4.75;3.42;;;;;;;;;;10051949;28;20135;-86
2023/06/29 01:49:57;;;;;;;6.65;3.40;;;;;;;;;;10005561;28;20053;-86
2023/06/29 01:54:51;;;;;;;4.32;3.92;;;;;;;;;;10005963;28;20100;-86
2023/06/29 01:59:46;;;;;;;4.38;3.15;;;;;;;;;;10024116;28;20057;-86
2023/06/29 02:04:39;;;;;;;3.75;3.15;;;;;;;;;;10007029;28;20054;-86
2023/06/29 02:09:35;;;;;;;7.25;4.03;;;;;;;;;;10012429;28;20046;-86
2023/06/29 02:14:29;;;;;;;4.85;3.75;;;;;;;;;;10011330;28;20053;-87
2023/06/29 02:19:23;;;;;;;4.82;3.78;;;;;;;;;;10011856;28;20465;-85
2023/06/29 02:24:17;;;;;;;3.85;3.53;;;;;;;;;;10029228;28;20046;-86
2023/06/29 02:29:11;;;;;;;3.42;3.13;;;;;;;;;;10029343;28;20494;-85
2023/06/29 02:34:06;;;;;;;3.55;2.83;;;;;;;;;;10028192;28;20739;-85
2023/06/29 02:39:00;;;;;;;4.20;3.45;;;;;;;;;;10027990;28;20520;-87
2023/06/29 02:43:54;;;;;;;3.45;3.15;;;;;;;;;;9994510;28;20050;-86
2023/06/29 02:48:49;;;;;;;7.50;3.38;;;;;;;;;;10026376;28;20045;-86
2023/06/29 02:53:43;;;;;;;5.03;3.67;;;;;;;;;;10026727;28;20101;-86
2023/06/29 02:58:38;;;;;;;3.47;3.17;;;;;;;;;;10029322;28;20847;-87
2023/06/29 03:03:36;;;;;;;3.83;3.15;;;;;;;;;;10011082;28;20424;-86
2023/06/29 03:08:33;;;;;;;5.13;3.28;;;;;;;;;;10024753;28;20104;-86
2023/06/29 03:13:27;;;;;;;4.10;3.45;;;;;;;;;;10028678;28;20050;-86
2023/06/29 03:18:22;;;;;;;3.60;3.30;;;;;;;;;;10026889;28;20065;-86
2023/06/29 03:23:16;;;;;;;5.90;3.22;;;;;;;;;;10026106;28;20496;-86
2023/06/29 03:28:11;;;;;;;5.03;3.95;;;;;;;;;;10026651;28;20054;-85
2023/06/29 03:33:05;;;;;;;3.85;3.33;;;;;;;;;;10026867;28;20054;-85
2023/06/29 03:37:59;;;;;;;5.55;3.15;;;;;;;;;;10027790;28;20044;-86
2023/06/29 03:42:54;;;;;;;3.75;3.40;;;;;;;;;;10041939;28;20082;-86
2023/06/29 03:47:48;;;;;;;5.95;3.42;;;;;;;;;;10023857;28;20061;-85
2023/06/29 03:52:43;;;;;;;6.50;3.28;;;;;;;;;;10026031;28;20065;-86
2023/06/29 03:57:37;;;;;;;4.32;3.40;;;;;;;;;;10027050;28;20104;-86
2023/06/29 04:02:31;;;;;;;3.45;3.15;;;;;;;;;;10023545;28;20080;-87
2023/06/29 04:07:25;;;;;;;4.10;3.70;;;;;;;;;;10025027;28;20041;-86
2023/06/29 04:12:20;;;;;;;4.07;3.33;;;;;;;;;;10025149;28;20050;-87
2023/06/29 04:17:14;;;;;;;3.08;2.88;;;;;;;;;;10024215;28;20048;-86
2023/06/29 04:22:08;;;;;;;3.97;3.63;;;;;;;;;;10024308;28;20049;-85
2023/06/29 04:27:03;;;;;;;5.00;3.65;;;;;;;;;;10007294;28;20120;-86
2023/06/29 04:31:58;;;;;;;4.20;3.55;;;;;;;;;;10025298;28;20811;-86
2023/06/29 04:36:56;;;;;;;3.85;3.53;;;;;;;;;;10021723;28;20142;-86
2023/06/29 04:42:01;;;;;;;5.68;3.60;;;;;;;;;;10024430;28;20054;-86
2023/06/29 04:46:54;;;;;;;7.15;4.88;;;;;;;;;;10023964;28;20049;-86
2023/06/29 04:51:49;;;;;;;4.38;3.97;;;;;;;;;;10023975;28;20381;-86
2023/06/29 04:56:44;;;;;;;4.95;4.28;;;;;;;;;;10023904;28;20058;-86
2023/06/29 05:01:41;;;;;;;5.43;4.15;;;;;;;;;;10024817;28;20065;-87
2023/06/29 05:06:34;;;;;;;5.40;4.15;;;;;;;;;;10023556;28;20152;-86
2023/06/29 05:11:29;;;;;;;4.72;4.32;;;;;;;;;;10022008;28;20046;-87
2023/06/29 05:16:26;;;;;;;4.95;3.50;;;;;;;;;;10022530;28;20058;-87
2023/06/29 05:21:22;;;;;;;6.15;3.65;;;;;;;;;;10007183;28;20060;-88
2023/06/29 05:26:16;;;;;;;6.57;4.60;;;;;;;;;;10025586;28;20448;-87
2023/06/29 05:31:11;;;;;;;5.47;4.43;;;;;;;;;;10024352;28;20049;-88
2023/06/29 05:36:08;;;;;;;4.77;3.77;;;;;;;;;;10022914;28;20049;-87
2023/06/29 05:41:03;;;;;;;5.82;3.95;;;;;;;;;;10024418;28;20080;-86
2023/06/29 05:45:59;;;;;;;3.80;3.42;;;;;;;;;;10044524;28;20076;-85
2023/06/29 05:50:52;;;;;;;4.05;3.65;;;;;;;;;;10064051;28;20048;-85
2023/06/29 05:55:47;;;;;;;3.92;3.38;;;;;;;;;;10061875;28;20057;-85
2023/06/29 06:00:41;;;;;;;4.28;3.53;;;;;;;;;;10053291;28;20142;-86
2023/06/29 06:05:36;;;;;;;3.83;3.45;;;;;;;;;;10032706;28;20492;-86
2023/06/29 06:10:30;;;;;;;3.83;3.20;;;;;;;;;;10061195;28;20081;-86
2023/06/29 06:15:24;;;;;;;3.67;3.38;;;;;;;;;;10049628;28;20049;-85
2023/06/29 06:20:19;;;;;;;4.18;3.78;;;;;;;;;;10048117;28;20049;-87
2023/06/29 06:25:17;;;;;;;3.58;3.28;;;;;;;;;;10054326;28;20061;-84
2023/06/29 06:30:11;;;;;;;3.55;3.25;;;;;;;;;;10048274;28;20054;-82
2023/06/29 06:35:09;;;;;;;4.90;3.00;;;;;;;;;;10043990;28;20069;-82
2023/06/29 06:40:07;;;;;;;4.20;3.47;;;;;;;;;;10044803;28;20042;-83
2023/06/29 06:45:03;;;;;;;4.13;3.72;;;;;;;;;;10038389;28;20409;-82
2023/06/29 06:49:58;;;;;;;6.10;3.40;;;;;;;;;;10032398;28;20539;-96
2023/06/29 06:54:52;;;;;;;3.70;3.40;;;;;;;;;;10033688;28;20096;-96
2023/06/29 06:59:46;;;;;;;3.25;2.90;;;;;;;;;;10025890;28;20812;-96
2023/06/29 07:04:40;;;;;;;3.80;3.50;;;;;;;;;;10012852;28;20046;-96
2023/06/29 07:09:34;;;;;;;3.72;3.38;;;;;;;;;;10027031;28;20050;-96
2023/06/29 07:21:13;;;;;;;3.08;2.78;;;;;;;;;;10065589;28;20048;-92
2023/06/29 07:26:12;;;;;;;4.10;3.05;;;;;;;;;;10065880;28;20085;-92
2023/06/29 07:31:07;;;;;;;8.02;3.53;;;;;;;;;;10051415;28;20050;-93
2023/06/29 07:36:04;;;;;;;;;;;;;;;;;;10033048;28;20125;-91
2023/06/29 07:40:59;;;;;;;4.57;2.53;;;;;;;;;;10032323;28;20388;-92
2023/06/29 07:45:52;;;;;;;3.95;2.05;;;;;;;;;;10058386;22;20107;-61
2023/06/29 07:50:44;;;;;;;5.93;2.60;;;;;;;;;;10086796;22;20123;-57
2023/06/29 07:55:35;;;;;;;4.22;2.30;;;;;;;;;;10110890;28;20059;-61
2023/06/29 08:00:27;;;;;;;4.20;2.10;;;;;;;;;;10086721;28;20044;-60
2023/06/29 08:05:19;;;;;;;4.97;2.00;;;;;;;;;;10079606;28;20075;-59
2023/06/29 08:10:14;;;;;;;3.05;1.70;;;;;;;;;;10091626;28;20041;-60
2023/06/29 08:15:06;;;;;;;3.50;2.17;;;;;;;;;;10058705;28;20434;-55
2023/06/29 08:19:58;;;;;;;3.15;1.92;;;;;;;;;;10063113;28;20045;-59
2023/06/29 08:24:51;;;;;;;3.22;2.13;;;;;;;;;;10067604;28;20442;-75
2023/06/29 08:29:43;;;;;;;3.25;2.15;;;;;;;;;;10068798;28;20518;-57
2023/06/29 08:34:35;;;;;;;8.45;2.30;;;;;;;;;;10067995;28;20040;-59
2023/06/29 08:39:27;;;;;;;3.90;1.73;;;;;;;;;;10069077;28;20057;-58
2023/06/29 08:44:18;;;;;;;4.13;2.25;;;;;;;;;;10103899;28;20132;-58
2023/06/29 08:49:12;;;;;;;4.55;1.90;;;;;;;;;;10040596;28;20395;-59
2023/06/29 08:54:04;;;;;;;1.63;1.52;;;;;;;;;;10062994;28;20144;-56
2023/06/29 08:58:56;;;;;;;5.55;2.17;;;;;;;;;;10040130;28;20458;-57
2023/06/29 09:03:50;;;;;;;2.15;1.55;;;;;;;;;;10045088;28;20119;-59
2023/06/29 09:08:42;;;;;;;2.05;1.60;;;;;;;;;;10058681;28;20064;-60
2023/06/29 09:13:34;;;;;;;3.63;1.70;;;;;;;;;;10054186;28;20422;-58
2023/06/29 09:18:27;;;;;;;2.63;1.92;;;;;;;;;;10064124;28;20033;-59
2023/06/29 09:23:21;;;;;;;4.68;2.20;;;;;;;;;;10064946;28;20048;-55
2023/06/29 09:28:13;;;;;;;6.63;1.90;;;;;;;;;;10082528;28;20481;-59
2023/06/29 09:33:09;;;;;;;15.30;2.15;;;;;;;;;;10072467;28;20042;-58
2023/06/29 09:38:02;;;;;;;4.40;1.70;;;;;;;;;;10065429;28;20103;-59
2023/06/29 09:42:54;;;;;;;3.30;1.90;;;;;;;;;;10053212;28;20034;-59
2023/06/29 09:47:50;;;;;;;3.40;1.75;;;;;;;;;;10097324;28;20183;-59
2023/06/29 09:52:46;;;;;;;2.20;1.90;;;;;;;;;;10023037;28;20126;-58
2023/06/29 09:57:45;;;;;;;2.78;1.73;;;;;;;;;;10056920;28;20060;-58
2023/06/29 10:02:39;;;;;;;6.97;2.03;;;;;;;;;;10065805;28;20042;-59
2023/06/29 10:07:33;;;;;;;6.68;1.70;;;;;;;;;;10069081;28;20584;-58
2023/06/29 10:12:26;;;;;;;5.07;1.70;;;;;;;;;;10085885;28;20045;-59
2023/06/29 10:17:30;;;;;;;2.50;1.70;;;;;;;;;;10071392;28;20129;-61
2023/06/29 10:22:22;;;;;;;3.38;1.83;;;;;;;;;;10040958;28;20084;-62
2023/06/29 10:27:15;;;;;;;3.22;1.55;;;;;;;;;;10077856;28;20069;-64
2023/06/29 10:32:07;;;;;;;4.32;2.05;;;;;;;;;;10055218;28;20049;-61
2023/06/29 10:36:59;;;;;;;2.08;1.70;;;;;;;;;;10080718;28;20494;-61
2023/06/29 10:41:51;;;;;;;3.63;1.70;;;;;;;;;;10032310;28;20515;-62
2023/06/29 10:46:43;;;;;;;3.17;1.80;;;;;;;;;;10056096;28;20042;-62
2023/06/29 10:51:49;;;;;;;4.20;1.50;;;;;;;;;;10088975;28;20382;-63
2023/06/29 10:56:59;;;;;;;3.50;1.55;;;;;;;;;;10107691;28;20045;-60
2023/06/29 11:01:51;;;;;;;2.85;1.85;;;;;;;;;;10076909;28;20054;-61
2023/06/29 11:06:43;;;;;;;5.15;1.90;;;;;;;;;;10071620;28;20053;-60
2023/06/29 11:11:35;;;;;;;5.78;1.70;;;;;;;;;;10065408;28;20049;-63
2023/06/29 11:16:28;;;;;;;9.57;2.28;;;;;;;;;;10065339;28;20052;-62
2023/06/29 11:21:21;;;;;;;6.22;1.90;;;;;;;;;;10084421;28;20057;-62
2023/06/29 11:26:13;;;;;;;2.63;2.08;;;;;;;;;;10072701;28;20369;-62
2023/06/29 11:31:05;;;;;;;2.50;1.70;;;;;;;;;;10061193;28;20133;-61
2023/06/29 11:35:57;;;;;;;4.45;1.60;;;;;;;;;;10046116;28;20422;-62
2023/06/29 11:40:52;;;;;;;5.80;1.83;;;;;;;;;;10079868;28;20448;-62
2023/06/29 11:45:44;;;;;;;2.92;2.22;;;;;;;;;;10048015;28;20483;-62
2023/06/29 11:50:37;;;;;;;5.05;1.98;;;;;;;;;;10055008;28;20693;-62
2023/06/29 11:55:29;;;;;;;3.20;2.10;;;;;;;;;;10050917;28;20064;-61
2023/06/29 12:00:22;;;;;;;3.45;1.92;;;;;;;;;;10054637;28;20143;-62
2023/06/29 12:05:14;;;;;;;4.63;3.17;;;;;;;;;;10071435;28;20042;-62
2023/06/29 12:10:08;;;;;;;2.65;1.65;;;;;;;;;;10060744;28;20133;-62
2023/06/29 12:15:14;;;;;;;2.30;1.83;;;;;;;;;;10056349;28;20132;-61
2023/06/29 12:20:18;;;;;;;2.72;2.10;;;;;;;;;;10050677;28;20056;-62
2023/06/29 12:25:12;;;;;;;2.40;2.10;;;;;;;;;;10060912;28;20055;-62
2023/06/29 12:30:05;;;;;;;4.18;2.20;;;;;;;;;;10059598;28;20053;-61
2023/06/29 12:34:57;;;;;;;2.22;2.00;;;;;;;;;;10046515;28;20128;-62
2023/06/29 12:39:49;;;;;;;4.47;2.65;;;;;;;;;;10068615;28;20494;-62
2023/06/29 12:44:41;;;;;;;4.78;2.42;;;;;;;;;;10086019;28;20045;-62
2023/06/29 12:49:33;;;;;;;4.25;2.30;;;;;;;;;;10071956;28;20057;-62
2023/06/29 12:54:25;;;;;;;5.35;2.10;;;;;;;;;;10076514;28;20052;-62
2023/06/29 12:59:17;;;;;;;2.78;2.38;;;;;;;;;;10059606;28;20046;-62
2023/06/29 13:04:09;;;;;;;4.00;2.60;;;;;;;;;;10066990;28;20049;-61
2023/06/29 13:09:01;;;;;;;2.47;2.00;;;;;;;;;;10095249;28;20045;-62
2023/06/29 13:13:54;;;;;;;2.55;1.85;;;;;;;;;;10083027;28;20051;-61
2023/06/29 13:18:45;;;;;;;13.48;2.72;;;;;;;;;;10075771;28;20057;-63
2023/06/29 13:23:37;;;;;;;3.08;2.03;;;;;;;;;;10075045;28;20049;-61
2023/06/29 13:28:29;;;;;;;5.03;2.30;;;;;;;;;;10041723;28;20096;-61
2023/06/29 13:33:23;;;;;;;6.43;2.80;;;;;;;;;;10030401;28;20041;-62
2023/06/29 13:38:15;;;;;;;12.82;2.78;;;;;;;;;;10066370;28;20383;-60
2023/06/29 13:43:07;;;;;;;6.90;2.60;;;;;;;;;;10058681;28;20053;-63
2023/06/29 13:48:00;;;;;;;2.67;2.47;;;;;;;;;;10065577;28;20038;-63
2023/06/29 13:52:52;;;;;;;3.65;2.50;;;;;;;;;;10053600;28;20048;-63
2023/06/29 13:57:44;;;;;;;5.65;3.03;;;;;;;;;;10101749;28;20141;-63
2023/06/29 14:02:37;;;;;;;6.47;2.92;;;;;;;;;;10073337;28;20087;-63
2023/06/29 14:07:29;;;;;;;4.97;2.75;;;;;;;;;;10092578;28;20041;-64
2023/06/29 14:12:21;;;;;;;5.10;2.92;;;;;;;;;;10082139;28;20115;-63
2023/06/29 14:17:18;;;;;;;4.22;2.50;;;;;;;;;;10057733;28;20041;-64
2023/06/29 14:22:11;;;;;;;3.23;2.67;;;;;;;;;;10082632;28;20048;-64
2023/06/29 14:27:03;;;;;;;6.70;2.92;;;;;;;;;;10108556;28;20049;-58
2023/06/29 14:31:55;;;;;;;2.92;2.45;;;;;;;;;;10079001;28;20129;-57
2023/06/29 14:36:47;;;;;;;7.57;4.10;;;;;;;;;;10080382;28;20045;-58
2023/06/29 14:41:51;;;;;;;3.17;2.67;;;;;;;;;;10105267;28;20124;-58
2023/06/29 14:46:44;;;;;;;6.32;2.67;;;;;;;;;;10087550;28;20362;-60
2023/06/29 14:51:36;;;;;;;6.68;3.13;;;;;;;;;;10058959;28;20041;-59
2023/06/29 14:56:27;;;;;;;12.82;3.03;;;;;;;;;;10071460;28;20084;-61
2023/06/29 15:01:19;;;;;;;5.57;3.00;;;;;;;;;;10071021;28;20079;-59
2023/06/29 15:06:12;;;;;;;3.65;3.00;;;;;;;;;;10054876;28;20049;-60
2023/06/29 15:11:04;;;;;;;5.47;2.83;;;;;;;;;;10065853;28;20042;-59
2023/06/29 15:15:56;;;;;;;8.15;3.00;;;;;;;;;;10061843;28;20060;-60
2023/06/29 15:20:48;;;;;;;4.57;3.15;;;;;;;;;;10040733;28;20542;-59
2023/06/29 15:25:40;;;;;;;5.22;2.88;;;;;;;;;;10070488;28;20090;-59
2023/06/29 15:30:38;;;;;;;5.10;3.25;;;;;;;;;;10067213;28;20037;-59
2023/06/29 15:35:44;;;;;;;11.10;3.55;;;;;;;;;;10066603;28;20124;-57
2023/06/29 15:40:36;;;;;;;3.33;2.90;;;;;;;;;;10056127;28;20475;-57
2023/06/29 15:45:28;;;;;;;4.90;3.88;;;;;;;;;;10054103;28;20037;-58
2023/06/29 15:50:20;;;;;;;4.78;3.17;;;;;;;;;;10059913;28;20041;-56
2023/06/29 15:55:12;;;;;;;13.68;4.15;;;;;;;;;;10064324;28;20573;-54
2023/06/29 16:00:04;;;;;;;5.20;3.45;;;;;;;;;;10100785;28;20044;-56
2023/06/29 16:05:02;;;;;;;5.53;3.58;;;;;;;;;;10103290;28;20067;-59
2023/06/29 16:09:55;;;;;;;4.93;3.80;;;;;;;;;;10097139;28;20045;-59
2023/06/29 16:14:47;;;;;;;8.95;3.90;;;;;;;;;;10069236;28;20045;-60
2023/06/29 16:19:39;;;;;;;10.40;3.70;;;;;;;;;;10061642;28;20145;-59
2023/06/29 16:24:30;;;;;;;8.00;3.35;;;;;;;;;;10047199;28;20456;-59
2023/06/29 16:29:22;;;;;;;25.92;6.82;;;;;;;;;;10059763;28;20072;-74
2023/06/29 16:34:14;;;;;;;19.80;3.70;;;;;;;;;;10067039;28;20049;-65
2023/06/29 16:39:07;;;;;;;10.70;4.88;;;;;;;;;;10080325;28;20056;-65
2023/06/29 16:43:59;;;;;;;6.85;4.05;;;;;;;;;;10103950;28;20045;-64
2023/06/29 16:48:57;;;;;;;5.28;3.38;;;;;;;;;;10105215;28;20131;-64
2023/06/29 16:53:49;;;;;;;3.65;3.35;;;;;;;;;;10103883;28;20352;-65
2023/06/29 16:58:43;;;;;;;6.95;3.45;;;;;;;;;;10104352;28;20087;-65
2023/06/29 17:03:35;;;;;;;6.60;3.50;;;;;;;;;;10103599;28;20041;-64
2023/06/29 17:08:27;;;;;;;7.47;3.63;;;;;;;;;;10102973;28;20124;-50
2023/06/29 17:13:19;;;;;;;4.18;2.40;;;;;;;;;;10086053;28;20100;-50
2023/06/29 17:18:11;;;;;;;4.15;3.17;;;;;;;;;;10087705;28;20037;-49
2023/06/29 17:23:03;;;;;;;5.47;2.83;;;;;;;;;;10096387;28;20083;-49
2023/06/29 17:27:55;;;;;;;7.13;3.35;;;;;;;;;;10100024;28;20613;-49
2023/06/29 17:32:46;;;;;;;9.45;3.05;;;;;;;;;;10076241;28;20084;-50
2023/06/29 17:37:40;;;;;;;6.97;3.25;;;;;;;;;;10081007;28;20049;-51
2023/06/29 17:42:33;;;;;;;4.25;3.33;;;;;;;;;;10094578;28;20169;-53
2023/06/29 17:47:25;;;;;;;9.18;3.80;;;;;;;;;;10082255;28;20041;-47
2023/06/29 17:52:17;;;;;;;5.97;3.05;;;;;;;;;;10062951;28;20053;-47
2023/06/29 17:57:09;;;;;;;4.15;2.40;;;;;;;;;;10097925;28;20041;-47
2023/06/29 18:02:01;;;;;;;7.63;2.78;;;;;;;;;;10065395;28;20452;-47
2023/06/29 18:06:53;;;;;;;5.93;2.72;;;;;;;;;;10069756;28;20072;-50
2023/06/29 18:11:45;;;;;;;6.40;2.70;;;;;;;;;;10079442;28;20049;-54
2023/06/29 18:16:38;;;;;;;4.53;2.30;;;;;;;;;;10087154;28;20045;-53
2023/06/29 18:21:31;;;;;;;13.27;2.70;;;;;;;;;;10086854;28;20087;-51
2023/06/29 18:26:23;;;;;;;6.22;3.10;;;;;;;;;;10079870;28;20041;-53
2023/06/29 18:31:15;;;;;;;6.25;3.00;;;;;;;;;;10074849;28;20459;-51
2023/06/29 18:36:07;;;;;;;6.13;2.83;;;;;;;;;;10067636;28;20045;-53
2023/06/29 18:41:00;;;;;;;3.83;2.42;;;;;;;;;;10068816;28;20468;-46
2023/06/29 18:45:52;;;;;;;3.13;2.22;;;;;;;;;;10071032;28;20458;-47
2023/06/29 18:50:44;;;;;;;2.85;2.35;;;;;;;;;;10089554;28;20053;-48
2023/06/29 18:55:36;;;;;;;5.22;2.28;;;;;;;;;;10092045;28;20054;-47
2023/06/29 19:00:28;;;;;;;4.78;2.88;;;;;;;;;;10109141;28;20072;-46
2023/06/29 19:05:20;;;;;;;4.53;2.17;;;;;;;;;;10073487;28;20471;-47
2023/06/29 19:10:12;;;;;;;6.15;2.33;;;;;;;;;;10092332;28;20064;-48
2023/06/29 19:15:05;;;;;;;4.68;2.42;;;;;;;;;;10107608;28;20459;-49
2023/06/29 19:19:57;;;;;;;6.05;2.30;;;;;;;;;;10101863;28;20391;-48
2023/06/29 19:24:48;;;;;;;6.85;2.38;;;;;;;;;;10068652;28;20042;-48
2023/06/29 19:29:40;;;;;;;4.35;3.22;;;;;;;;;;10082458;28;20049;-46
2023/06/29 19:34:32;;;;;;;2.97;2.28;;;;;;;;;;10081506;28;20239;-48
2023/06/29 19:39:24;;;;;;;7.53;2.72;;;;;;;;;;10067766;28;20059;-48
2023/06/29 19:44:16;;;;;;;3.55;2.42;;;;;;;;;;10049012;28;20100;-45
2023/06/29 19:49:08;;;;;;;2.90;2.25;;;;;;;;;;10067036;28;20060;-45
2023/06/29 19:54:00;;;;;;;3.55;2.35;;;;;;;;;;10070336;28;20041;-45
2023/06/29 19:58:52;;;;;;;4.88;2.85;;;;;;;;;;10058917;28;20050;-46
2023/06/29 20:03:44;;;;;;;6.38;2.75;;;;;;;;;;10053591;28;20353;-45
2023/06/29 20:08:36;;;;;;;6.75;2.90;;;;;;;;;;10079741;28;20041;-46
2023/06/29 20:13:28;;;;;;;3.60;2.38;;;;;;;;;;10067642;28;20037;-45
2023/06/29 20:18:20;;;;;;;3.42;1.95;;;;;;;;;;10067404;28;20042;-46
2023/06/29 20:23:11;;;;;;;3.22;1.90;;;;;;;;;;10081057;28;20055;-45
2023/06/29 20:28:03;;;;;;;4.75;1.90;;;;;;;;;;10064594;28;20037;-45
2023/06/29 20:32:55;;;;;;;4.18;2.30;;;;;;;;;;10062951;28;20451;-45
2023/06/29 20:37:47;;;;;;;2.88;2.58;;;;;;;;;;10066025;28;20119;-47
2023/06/29 20:42:39;;;;;;;4.03;2.15;;;;;;;;;;10063262;28;20391;-46
2023/06/29 20:47:31;;;;;;;1.83;1.73;;;;;;;;;;10077962;28;20092;-46
2023/06/29 20:52:23;;;;;;;3.35;2.20;;;;;;;;;;10064289;28;20696;-48
2023/06/29 20:57:22;;;;;;;3.10;2.33;;;;;;;;;;10059331;28;20037;-51
2023/06/29 21:02:14;;;;;;;2.15;1.90;;;;;;;;;;10060368;28;20041;-46
2023/06/29 21:07:06;;;;;;;2.28;1.95;;;;;;;;;;10063399;28;20419;-46
2023/06/29 21:11:58;;;;;;;2.30;1.73;;;;;;;;;;10061194;28;20111;-45
2023/06/29 21:16:50;;;;;;;4.15;1.90;;;;;;;;;;10062432;28;20056;-46
2023/06/29 21:21:42;;;;;;;3.20;1.85;;;;;;;;;;10062378;28;20049;-46
2023/06/29 21:26:34;;;;;;;4.55;2.13;;;;;;;;;;10061646;28;20047;-48
2023/06/29 21:31:26;;;;;;;1.75;1.63;;;;;;;;;;10062147;28;20411;-50
2023/06/29 21:36:18;;;;;;;2.17;1.98;;;;;;;;;;10043522;28;20042;-51
2023/06/29 21:41:10;;;;;;;2.00;1.60;;;;;;;;;;10061735;28;20386;-49
2023/06/29 21:46:04;;;;;;;2.03;1.83;;;;;;;;;;10061759;28;20411;-48
2023/06/29 21:50:56;;;;;;;2.13;1.92;;;;;;;;;;10060892;28;20096;-48
2023/06/29 21:55:48;;;;;;;1.60;1.50;;;;;;;;;;10060917;28;20073;-49
2023/06/29 22:00:40;;;;;;;2.85;1.92;;;;;;;;;;10060816;28;20045;-48
2023/06/29 22:05:33;;;;;;;2.78;1.77;;;;;;;;;;10063167;28;20041;-49
2023/06/29 22:10:25;;;;;;;1.88;1.77;;;;;;;;;;10063170;28;20042;-50
2023/06/29 22:15:17;;;;;;;3.67;1.85;;;;;;;;;;10063082;28;20049;-49
2023/06/29 22:20:12;;;;;;;2.25;2.05;;;;;;;;;;10062838;28;20045;-48
2023/06/29 22:25:06;;;;;;;2.33;1.50;;;;;;;;;;10068415;28;20107;-46
2023/06/29 22:36:22;;;;;;;2.63;1.83;;;;;;;;;;10066984;28;20056;-49
2023/06/29 22:41:15;;;;;;;3.13;2.00;;;;;;;;;;10068129;28;20054;-46
2023/06/29 22:46:07;;;;;;;2.65;1.83;;;;;;;;;;10066537;28;20049;-48
2023/06/29 22:50:59;;;;;;;2.65;2.05;;;;;;;;;;10067770;28;20084;-49
2023/06/29 22:55:51;;;;;;;2.00;1.80;;;;;;;;;;10068295;28;20046;-49
2023/06/29 23:00:43;;;;;;;2.03;1.77;;;;;;;;;;10068385;28;20140;-48
2023/06/29 23:05:35;;;;;;;2.15;1.95;;;;;;;;;;10067454;28;20111;-48
2023/06/29 23:10:27;;;;;;;3.05;1.58;;;;;;;;;;10067206;28;20042;-48
2023/06/29 23:15:19;;;;;;;2.33;2.08;;;;;;;;;;10066301;28;20136;-49
2023/06/29 23:20:12;;;;;;;3.63;2.28;;;;;;;;;;10067240;28;20136;-48
2023/06/29 23:25:07;;;;;;;2.42;1.80;;;;;;;;;;10066795;28;20462;-49
2023/06/29 23:29:58;;;;;;;2.83;2.63;;;;;;;;;;10067228;28;20045;-49
2023/06/29 23:34:50;;;;;;;1.92;1.83;;;;;;;;;;10066204;28;20045;-48
2023/06/29 23:39:42;;;;;;;1.95;1.70;;;;;;;;;;10066406;28;20096;-49
2023/06/29 23:44:40;;;;;;;2.22;2.03;;;;;;;;;;10066003;28;20446;-48
2023/06/29 23:49:34;;;;;;;2.25;2.03;;;;;;;;;;10064617;28;20136;-49
2023/06/29 23:54:26;;;;;;;1.52;1.42;;;;;;;;;;10065768;28;20529;-48
2023/06/29 23:59:18;;;;;;;2.00;1.63;;;;;;;;;;10067104;28;20103;-48
